Terminal Aerodrome Forecast
Issued by NWS

Home | Current Version | Previous Version | Text Only | Print | Product List | Glossary On
Versions: 1 2 3 4 5 6 7 8 9 10 11 12 13
000
FTUS43 KIND 012300
TAFBMG
TAF
KBMG 012320Z 0200/0224 12005KT P6SM SCT250
     FM020100 12004KT P6SM SCT250
     FM020900 17003KT P6SM SCT050 BKN250
     FM021500 18007KT P6SM SCT040 BKN150
      AMD LTD TO CLD VIS AND WIND 0201/0213=

USA.gov is the U.S. government's official web portal to all federal, state and local government web resources and services.